Time;durP1;ratioP1;P1;durP2;ratioP2;P2;SDS_P1;SDS_P2;PMS_P1;PMS_P2;Temp;Humidity;BMP_temperature;BMP_pressure;BME280_temperature;BME280_humidity;BME280_pressure;Samples;Min_cycle;Max_cycle;Signal;HPM_P1;HPM_P2
2022/01/12 00:00:08;;;;;;;41.13;21.05;;;;;;;-1.60;79.06;97903.44;5008898;28;20053;-79
2022/01/12 00:02:35;;;;;;;39.80;19.83;;;;;;;-1.65;79.46;97911.22;5011080;28;20640;-79
2022/01/12 00:05:01;;;;;;;41.40;21.13;;;;;;;-1.67;79.56;97907.91;5011176;28;20077;-80
2022/01/12 00:07:28;;;;;;;42.42;20.55;;;;;;;-1.67;79.49;97913.25;5030233;28;20045;-78
2022/01/12 00:09:54;;;;;;;42.05;20.17;;;;;;;-1.68;79.65;97912.44;5030801;28;20049;-78
2022/01/12 00:12:21;;;;;;;40.17;21.05;;;;;;;-1.63;80.04;97917.16;5030276;28;20463;-78
2022/01/12 00:14:48;;;;;;;42.42;21.70;;;;;;;-1.61;80.59;97923.16;5029701;28;20044;-79
2022/01/12 00:17:15;;;;;;;45.42;21.88;;;;;;;-1.54;80.63;97926.66;5030190;28;20049;-78
2022/01/12 00:19:41;;;;;;;43.20;21.77;;;;;;;-1.46;81.10;97926.47;5030484;28;20125;-79
2022/01/12 00:22:08;;;;;;;45.40;21.40;;;;;;;-1.41;81.08;97926.69;5029796;28;20045;-78
2022/01/12 00:25:02;;;;;;;43.08;22.70;;;;;;;-1.34;81.26;97924.03;5030390;28;20496;-79
2022/01/12 00:33:10;;;;;;;45.22;23.08;;;;;;;-1.38;80.85;97920.91;5030317;28;20539;-78
2022/01/12 00:35:38;;;;;;;46.47;23.23;;;;;;;-1.37;80.88;97917.22;5030076;28;20128;-78
2022/01/12 00:38:04;;;;;;;41.25;21.73;;;;;;;-1.36;80.57;97916.22;5029351;28;20360;-79
2022/01/12 00:40:31;;;;;;;43.33;21.40;;;;;;;-1.39;80.42;97913.94;5029941;28;20053;-79
2022/01/12 00:42:58;;;;;;;43.53;21.85;;;;;;;-1.42;80.08;97911.66;5029744;28;20057;-78
2022/01/12 00:45:26;;;;;;;44.55;21.83;;;;;;;-1.44;79.87;97913.72;5029962;28;20041;-79
2022/01/12 00:47:53;;;;;;;46.28;21.65;;;;;;;-1.47;79.63;97918.63;5029852;28;20049;-79
2022/01/12 00:50:19;;;;;;;43.38;21.25;;;;;;;-1.55;79.61;97911.66;5029554;28;20076;-78
2022/01/12 00:52:48;;;;;;;42.55;21.98;;;;;;;-1.61;79.73;97907.13;5029775;28;20050;-78
2022/01/12 00:55:15;;;;;;;47.80;22.10;;;;;;;-1.65;79.73;97912.03;5029646;28;20050;-79
2022/01/12 00:57:42;;;;;;;47.15;22.08;;;;;;;-1.71;80.08;97917.38;5029856;28;20075;-77
2022/01/12 01:00:09;;;;;;;50.80;23.52;;;;;;;-1.72;80.25;97913.03;5029250;28;20055;-78
2022/01/12 01:02:37;;;;;;;43.92;22.33;;;;;;;-1.74;80.14;97917.75;5029661;28;20056;-78
2022/01/12 01:05:04;;;;;;;44.03;21.90;;;;;;;-1.76;79.98;97922.50;5029359;28;20049;-79
2022/01/12 01:07:31;;;;;;;42.97;21.10;;;;;;;-1.77;79.55;97923.53;5029705;28;20053;-78
2022/01/12 01:10:04;;;;;;;44.78;21.80;;;;;;;-1.78;79.86;97928.00;5028794;28;20140;-78
2022/01/12 01:12:31;;;;;;;48.40;21.63;;;;;;;-1.81;79.17;97927.63;5029164;28;20056;-78
2022/01/12 01:15:05;;;;;;;43.75;21.88;;;;;;;-1.90;79.05;97925.09;5028471;28;20735;-78
2022/01/12 01:25:49;;;;;;;48.25;23.17;;;;;;;-2.18;79.86;97927.06;5029503;28;20157;-78
2022/01/12 01:28:17;;;;;;;43.10;21.52;;;;;;;-2.23;80.13;97924.16;5028928;28;20046;-78
2022/01/12 01:30:45;;;;;;;45.63;22.05;;;;;;;-2.26;80.16;97932.56;5029059;28;20045;-79
2022/01/12 01:33:16;;;;;;;47.75;23.35;;;;;;;-2.28;80.53;97922.09;5028570;28;20050;-79
2022/01/12 01:35:46;;;;;;;52.25;24.90;;;;;;;-2.33;81.00;97916.50;5029291;28;20487;-79
2022/01/12 01:38:13;;;;;;;48.40;23.23;;;;;;;-2.31;81.26;97921.66;5028488;28;20623;-80
2022/01/12 01:40:42;;;;;;;48.88;23.83;;;;;;;-2.30;81.21;97915.28;5028917;28;20103;-79
2022/01/12 01:43:17;;;;;;;48.22;23.95;;;;;;;-2.29;81.35;97914.28;5028064;28;20144;-79
2022/01/12 01:53:59;;;;;;;45.33;22.35;;;;;;;-2.40;81.11;97913.00;5028818;28;20060;-78
2022/01/12 01:56:26;;;;;;;47.22;22.48;;;;;;;-2.37;80.57;97916.06;5028551;28;20057;-79
2022/01/12 01:58:53;;;;;;;47.15;22.65;;;;;;;-2.40;80.23;97913.81;5028941;28;20557;-78
2022/01/12 02:01:20;;;;;;;45.13;21.58;;;;;;;-2.41;80.13;97920.16;5028452;28;20069;-78
2022/01/12 02:03:46;;;;;;;43.22;21.48;;;;;;;-2.45;80.21;97910.91;5028784;28;20061;-79
2022/01/12 02:06:16;;;;;;;42.10;21.27;;;;;;;-2.47;79.98;97912.94;5028061;28;20053;-79
2022/01/12 02:08:43;;;;;;;41.10;20.83;;;;;;;-2.53;79.86;97903.06;5028547;28;20071;-79
2022/01/12 02:11:10;;;;;;;46.83;21.65;;;;;;;-2.58;79.89;97907.34;5027784;28;20051;-79
2022/01/12 02:13:36;;;;;;;46.50;22.17;;;;;;;-2.65;79.99;97904.66;5027687;28;20045;-77
2022/01/12 02:16:02;;;;;;;50.55;22.50;;;;;;;-2.64;80.22;97903.63;5027998;28;20534;-78
2022/01/12 02:18:52;;;;;;;42.45;21.38;;;;;;;-2.64;80.17;97911.63;5028346;28;20068;-78
2022/01/12 02:35:20;;;;;;;37.92;18.90;;;;;;;-3.15;80.03;97941.19;5027625;28;20056;-78
2022/01/12 02:40:37;;;;;;;45.25;20.92;;;;;;;-3.29;79.84;97952.72;5027692;28;20131;-78
2022/01/12 02:43:12;;;;;;;42.72;20.42;;;;;;;-3.30;80.03;97953.75;5025627;28;20068;-78
2022/01/12 02:51:15;;;;;;;41.55;20.75;;;;;;;-3.26;80.77;97949.69;5027228;28;20079;-78
2022/01/12 02:53:44;;;;;;;45.63;23.85;;;;;;;-3.22;80.86;97945.63;5027988;28;20128;-79
2022/01/12 02:56:13;;;;;;;42.95;21.52;;;;;;;-3.22;80.76;97950.97;5027231;28;20111;-79
2022/01/12 02:58:40;;;;;;;50.35;23.33;;;;;;;-3.22;80.89;97945.63;5028020;28;20049;-78
2022/01/12 03:04:09;;;;;;;49.50;23.98;;;;;;;-3.15;81.24;97938.50;5027345;28;20543;-79
2022/01/12 03:06:39;;;;;;;51.00;22.98;;;;;;;-3.14;81.36;97948.16;5027778;28;20049;-78
2022/01/12 03:09:09;;;;;;;52.58;23.30;;;;;;;-3.10;81.30;97943.25;5027225;28;20560;-78
2022/01/12 03:11:37;;;;;;;48.72;23.60;;;;;;;-3.05;81.15;97944.34;5027422;28;20065;-79
2022/01/12 03:14:05;;;;;;;51.67;22.95;;;;;;;-3.02;81.23;97951.13;5026486;28;20054;-79
2022/01/12 03:16:32;;;;;;;48.63;22.55;;;;;;;-3.01;81.29;97944.78;5027662;28;20054;-78
2022/01/12 03:19:01;;;;;;;49.67;22.65;;;;;;;-2.99;81.35;97956.88;5027580;28;20441;-78
2022/01/12 03:21:31;;;;;;;49.45;21.92;;;;;;;-2.98;81.29;97958.53;5027156;28;20045;-79
2022/01/12 03:23:58;;;;;;;47.03;22.20;;;;;;;-2.94;81.22;97959.81;5027630;28;20053;-78
2022/01/12 03:26:29;;;;;;;48.80;21.65;;;;;;;-2.95;81.02;97958.16;5027008;28;20049;-78
2022/01/12 03:28:57;;;;;;;49.20;22.05;;;;;;;-2.98;80.89;97966.53;5027749;28;20064;-78
2022/01/12 03:31:26;;;;;;;46.13;21.67;;;;;;;-3.00;81.00;97963.25;5026910;28;20087;-79
2022/01/12 03:33:57;;;;;;;49.88;23.38;;;;;;;-3.04;80.90;97979.81;5029535;28;20056;-78
2022/01/12 03:39:08;;;;;;;50.50;21.55;;;;;;;-3.01;80.55;97969.59;5028469;28;20053;-79
2022/01/12 03:41:37;;;;;;;46.50;22.50;;;;;;;-3.04;80.68;97967.28;5028444;28;20420;-79
2022/01/12 03:44:06;;;;;;;50.22;22.52;;;;;;;-2.99;80.63;97978.22;5030819;28;20045;-78
2022/01/12 03:46:35;;;;;;;46.80;21.92;;;;;;;-2.96;80.16;97966.34;5031073;28;20049;-78
2022/01/12 03:49:02;;;;;;;44.50;19.75;;;;;;;-2.95;79.70;97974.16;5030450;28;20529;-74
2022/01/12 03:51:28;;;;;;;47.45;20.80;;;;;;;-3.01;79.92;97980.25;5030593;28;20718;-78
2022/01/12 03:53:55;;;;;;;44.88;20.58;;;;;;;-2.93;79.83;97979.28;5031031;28;20058;-79
2022/01/12 03:56:21;;;;;;;44.90;20.23;;;;;;;-2.93;79.74;97977.44;5030302;28;20771;-78
2022/01/12 03:58:49;;;;;;;44.92;20.40;;;;;;;-2.93;79.92;97980.09;5030572;28;20045;-78
2022/01/12 04:01:16;;;;;;;45.00;21.05;;;;;;;-2.88;80.23;97985.69;5029718;28;20053;-78
2022/01/12 04:03:46;;;;;;;48.03;20.67;;;;;;;-2.85;80.66;97984.47;5030858;28;20053;-78
2022/01/12 04:08:57;;;;;;;48.92;21.92;;;;;;;-2.78;81.13;97990.69;5031074;28;20536;-78
2022/01/12 04:11:23;;;;;;;44.50;22.00;;;;;;;-2.74;81.26;97997.28;5029229;28;20045;-79
2022/01/12 04:13:52;;;;;;;48.85;23.65;;;;;;;-2.68;81.90;97993.03;5030066;28;20448;-79
2022/01/12 04:16:18;;;;;;;53.08;23.92;;;;;;;-2.60;82.14;97995.56;5029408;28;20045;-79
2022/01/12 04:18:45;;;;;;;51.08;23.50;;;;;;;-2.46;82.61;97989.28;5030473;28;20045;-79
2022/01/12 04:21:13;;;;;;;51.72;23.35;;;;;;;-2.31;82.75;97985.69;5030085;28;20045;-78
2022/01/12 04:23:40;;;;;;;49.20;23.08;;;;;;;-2.23;82.76;97974.88;5030663;28;20053;-79
2022/01/12 04:26:10;;;;;;;52.33;23.25;;;;;;;-2.13;82.60;97980.66;5030163;28;20141;-77
2022/01/12 04:28:39;;;;;;;54.67;24.63;;;;;;;-2.04;82.67;97982.13;5030315;28;20165;-78
2022/01/12 04:31:08;;;;;;;51.90;23.17;;;;;;;-1.97;82.31;97983.00;5029447;28;20085;-79
2022/01/12 04:33:36;;;;;;;52.50;23.75;;;;;;;-1.93;82.13;97984.25;5030084;28;20057;-78
2022/01/12 04:36:03;;;;;;;55.63;24.48;;;;;;;-1.82;82.19;97982.06;5029833;28;20080;-78
2022/01/12 04:38:33;;;;;;;49.40;23.13;;;;;;;-1.78;82.11;97970.75;5029888;28;20622;-78
2022/01/12 04:41:01;;;;;;;50.55;23.25;;;;;;;-1.75;81.54;97969.53;5030011;28;20419;-79
2022/01/12 04:43:27;;;;;;;50.00;23.23;;;;;;;-1.76;81.39;97978.56;5021677;28;20049;-78
2022/01/12 04:46:09;;;;;;;49.67;22.95;;;;;;;-1.69;81.10;97984.75;5029420;28;20065;-79
2022/01/12 04:48:51;;;;;;;50.85;23.17;;;;;;;-1.69;81.10;97971.41;5010297;28;20046;-79
2022/01/12 04:51:18;;;;;;;49.35;23.52;;;;;;;-1.65;80.84;97973.47;5009657;28;20050;-78
2022/01/12 04:53:44;;;;;;;53.65;23.52;;;;;;;-1.62;80.84;97985.59;5010109;28;20509;-78
2022/01/12 04:56:11;;;;;;;49.42;24.13;;;;;;;-1.66;80.82;97976.34;5009571;28;20061;-79
2022/01/12 04:58:38;;;;;;;55.83;25.83;;;;;;;-1.65;80.99;97981.47;5010304;28;20416;-78
2022/01/12 05:01:08;;;;;;;54.22;25.45;;;;;;;-1.60;80.96;97981.72;5009590;28;20567;-79
2022/01/12 05:09:07;;;;;;;58.55;26.35;;;;;;;-1.55;81.18;97991.78;4974022;28;20042;-79
2022/01/12 05:14:18;;;;;;;53.38;25.85;;;;;;;-1.50;80.26;97994.69;5009399;28;20535;-78
2022/01/12 05:16:44;;;;;;;57.95;25.15;;;;;;;-1.56;80.27;98000.84;5009450;28;20278;-78
2022/01/12 05:19:11;;;;;;;49.63;22.55;;;;;;;-1.55;80.45;98002.47;5009102;28;20053;-78
2022/01/12 05:21:39;;;;;;;59.65;25.63;;;;;;;-1.52;80.78;97999.41;5009435;28;20045;-80
2022/01/12 05:24:07;;;;;;;58.17;25.33;;;;;;;-1.51;80.64;98002.88;5009297;28;20398;-78
2022/01/12 05:26:34;;;;;;;57.28;25.30;;;;;;;-1.51;80.60;97995.72;5009794;28;20053;-78
2022/01/12 05:29:01;;;;;;;57.42;25.70;;;;;;;-1.46;80.62;98005.78;5009630;28;20054;-78
2022/01/12 05:31:28;;;;;;;57.30;26.40;;;;;;;-1.46;80.74;98006.63;5008989;28;20049;-78
2022/01/12 05:33:58;;;;;;;60.08;26.95;;;;;;;-1.47;80.78;98007.63;5009358;28;20061;-78
2022/01/12 05:36:25;;;;;;;58.13;25.40;;;;;;;-1.44;80.91;98015.25;5008973;28;20073;-78
2022/01/12 05:38:53;;;;;;;57.90;25.13;;;;;;;-1.39;80.57;98030.69;5009306;28;20061;-79
2022/01/12 05:41:19;;;;;;;57.45;25.83;;;;;;;-1.37;80.09;98026.78;5008665;28;20508;-79
2022/01/12 05:43:46;;;;;;;55.00;25.27;;;;;;;-1.40;80.02;98027.19;5009199;28;20421;-78
2022/01/12 05:46:13;;;;;;;57.38;25.83;;;;;;;-1.46;80.47;98030.69;5008599;28;20768;-78
2022/01/12 05:51:27;;;;;;;57.10;25.00;;;;;;;-1.41;80.68;98024.69;5008514;28;20045;-78
2022/01/12 05:53:55;;;;;;;54.58;24.88;;;;;;;-1.39;81.01;98034.19;5009311;28;20050;-79
2022/01/12 05:56:22;;;;;;;64.85;27.00;;;;;;;-1.38;80.27;98022.47;5007731;28;20053;-78
2022/01/12 05:58:49;;;;;;;59.80;25.65;;;;;;;-1.41;79.94;98030.91;5007101;28;20049;-73
2022/01/12 06:01:16;;;;;;;60.42;25.85;;;;;;;-1.39;80.30;98044.06;5008183;28;20061;-72
2022/01/12 06:03:43;;;;;;;54.88;25.70;;;;;;;-1.42;80.09;98049.78;5008614;28;20046;-73
2022/01/12 06:06:09;;;;;;;61.60;26.35;;;;;;;-1.48;80.17;98051.41;5008298;28;20046;-73
2022/01/12 06:08:36;;;;;;;64.47;28.60;;;;;;;-1.51;80.61;98046.47;5008542;28;20050;-74
2022/01/12 06:11:04;;;;;;;60.95;25.90;;;;;;;-1.51;80.92;98046.47;5008190;28;20054;-72
2022/01/12 06:13:31;;;;;;;61.47;25.65;;;;;;;-1.50;81.22;98037.44;5008284;28;20752;-74
2022/01/12 06:15:57;;;;;;;64.68;26.42;;;;;;;-1.49;80.81;98039.09;5008368;28;20054;-74
2022/01/12 06:18:24;;;;;;;60.58;26.33;;;;;;;-1.52;80.59;98047.47;5007387;28;20050;-73
2022/01/12 06:20:50;;;;;;;69.40;26.52;;;;;;;-1.50;80.38;98048.13;5008300;28;20046;-73
2022/01/12 06:23:17;;;;;;;53.63;25.33;;;;;;;-1.55;80.52;98055.09;5008001;28;20041;-74
2022/01/12 06:25:44;;;;;;;55.60;25.77;;;;;;;-1.60;80.79;98069.03;5008843;28;20046;-73
2022/01/12 06:28:34;;;;;;;66.85;28.35;;;;;;;-1.60;80.93;98079.72;5007942;28;20417;-73
2022/01/12 06:31:14;;;;;;;61.58;25.50;;;;;;;-1.60;81.01;98079.72;5008480;28;20056;-74
2022/01/12 06:33:43;;;;;;;56.78;26.08;;;;;;;-1.54;81.48;98086.13;5008229;28;20112;-73
2022/01/12 06:36:12;;;;;;;63.88;26.05;;;;;;;-1.50;81.30;98087.38;5007651;28;20420;-73
2022/01/12 06:38:38;;;;;;;59.13;25.98;;;;;;;-1.53;81.08;98080.56;5007867;28;20531;-74
2022/01/12 06:41:05;;;;;;;62.15;26.33;;;;;;;-1.54;81.01;98083.44;5007405;28;20050;-73
2022/01/12 06:43:35;;;;;;;64.53;28.58;;;;;;;-1.53;81.26;98093.94;5007526;28;20133;-75
2022/01/12 06:46:02;;;;;;;66.15;28.42;;;;;;;-1.52;81.18;98103.59;5007474;28;20053;-74
2022/01/12 06:48:29;;;;;;;60.22;26.85;;;;;;;-1.53;81.08;98106.47;5005979;28;20129;-74
2022/01/12 06:50:55;;;;;;;66.00;26.55;;;;;;;-1.60;81.23;98117.13;5007702;28;20045;-74
2022/01/12 06:53:22;;;;;;;61.53;25.20;;;;;;;-1.57;81.69;98116.72;5007155;28;20045;-74
2022/01/12 06:55:48;;;;;;;61.72;26.77;;;;;;;-1.56;81.21;98120.25;5007518;28;20050;-74
2022/01/12 06:58:15;;;;;;;59.17;25.05;;;;;;;-1.56;80.91;98121.06;5007651;28;20497;-74
2022/01/12 07:00:43;;;;;;;64.55;25.73;;;;;;;-1.64;80.55;98118.53;5008435;28;20050;-74
2022/01/12 07:03:09;;;;;;;58.20;25.08;;;;;;;-1.60;81.17;98128.63;5007991;28;20046;-74
2022/01/12 07:05:36;;;;;;;60.45;25.83;;;;;;;-1.57;81.24;98127.41;5008465;28;20137;-74
2022/01/12 07:08:03;;;;;;;70.15;26.83;;;;;;;-1.52;81.35;98130.31;5008275;28;20049;-73
2022/01/12 07:10:29;;;;;;;63.92;27.15;;;;;;;-1.51;81.41;98126.63;5011948;28;20803;-74
2022/01/12 07:12:56;;;;;;;68.88;28.65;;;;;;;-1.56;80.71;98131.75;5011992;28;20059;-74
2022/01/12 07:15:22;;;;;;;65.30;26.33;;;;;;;-1.59;81.04;98132.94;5011804;28;20049;-74
2022/01/12 07:17:50;;;;;;;62.45;26.27;;;;;;;-1.66;81.08;98139.28;5012240;28;20057;-74
2022/01/12 07:20:17;;;;;;;61.65;25.05;;;;;;;-1.66;81.54;98145.44;5011866;28;20076;-74
2022/01/12 07:22:44;;;;;;;66.45;27.30;;;;;;;-1.61;81.79;98147.53;5012334;28;20622;-74
2022/01/12 07:25:11;;;;;;;70.25;27.60;;;;;;;-1.57;81.70;98138.09;5011763;28;20050;-74
2022/01/12 07:27:38;;;;;;;64.63;27.60;;;;;;;-1.55;81.24;98149.41;5012229;28;20049;-74
2022/01/12 07:30:06;;;;;;;60.17;26.00;;;;;;;-1.62;81.25;98156.53;5011199;28;20054;-73
2022/01/12 07:32:32;;;;;;;65.78;26.48;;;;;;;-1.67;81.52;98159.84;5012011;28;20060;-73
2022/01/12 07:35:00;;;;;;;62.90;26.55;;;;;;;-1.69;81.75;98159.19;5011705;28;20082;-74
2022/01/12 07:37:27;;;;;;;57.47;24.55;;;;;;;-1.69;82.14;98171.72;5011544;28;20566;-73
2022/01/12 07:39:53;;;;;;;59.50;26.13;;;;;;;-1.70;82.50;98178.91;5011610;28;20064;-74
2022/01/12 07:42:20;;;;;;;59.35;25.60;;;;;;;-1.66;82.64;98176.69;5010354;28;20477;-74
2022/01/12 07:44:46;;;;;;;59.20;25.35;;;;;;;-1.71;81.93;98176.44;5011721;28;20053;-74
2022/01/12 07:47:13;;;;;;;60.28;25.70;;;;;;;-1.81;81.92;98178.63;5011200;28;20067;-74
2022/01/12 07:49:39;;;;;;;61.88;25.33;;;;;;;-1.93;82.20;98176.50;5011680;28;20528;-74
2022/01/12 07:52:08;;;;;;;64.28;26.10;;;;;;;-2.03;82.65;98189.34;5011204;28;20107;-73
2022/01/12 07:54:34;;;;;;;59.05;25.20;;;;;;;-2.07;82.75;98190.75;5011485;28;20497;-74
2022/01/12 07:57:01;;;;;;;62.15;26.38;;;;;;;-2.08;83.60;98194.44;5011336;28;20847;-73
2022/01/12 07:59:27;;;;;;;64.65;24.77;;;;;;;-2.06;83.63;98189.72;5030744;28;20053;-74
2022/01/12 08:01:54;;;;;;;63.53;24.92;;;;;;;-2.03;83.76;98192.00;5031124;28;20059;-73
2022/01/12 08:04:20;;;;;;;67.13;26.17;;;;;;;-1.99;83.67;98198.59;5030615;28;20049;-73
2022/01/12 08:06:47;;;;;;;62.70;25.95;;;;;;;-1.91;83.53;98195.81;5031138;28;20056;-74
2022/01/12 08:09:15;;;;;;;65.15;26.45;;;;;;;-1.88;83.23;98198.09;5030806;28;20054;-73
2022/01/12 08:11:41;;;;;;;62.72;26.35;;;;;;;-1.83;83.25;98205.50;5030171;28;20056;-74
2022/01/12 08:14:07;;;;;;;60.45;26.08;;;;;;;-1.78;82.96;98204.94;5030200;28;20053;-73
2022/01/12 08:16:34;;;;;;;66.43;27.38;;;;;;;-1.70;83.10;98208.28;5030719;28;20411;-74
2022/01/12 08:19:01;;;;;;;67.28;27.20;;;;;;;-1.59;83.04;98210.41;5030229;28;20530;-74
2022/01/12 08:21:29;;;;;;;66.38;27.27;;;;;;;-1.55;82.66;98216.22;5029332;28;20049;-73
2022/01/12 08:23:56;;;;;;;69.35;27.55;;;;;;;-1.44;82.62;98212.16;5030669;28;20133;-74
2022/01/12 08:26:24;;;;;;;65.57;26.80;;;;;;;-1.39;82.42;98215.06;5029972;28;20041;-73
2022/01/12 08:28:50;;;;;;;66.35;27.80;;;;;;;-1.34;82.37;98218.81;5030501;28;20061;-74
2022/01/12 08:31:18;;;;;;;71.63;28.63;;;;;;;-1.27;82.51;98220.69;5029949;28;20045;-74
2022/01/12 08:33:44;;;;;;;64.55;27.00;;;;;;;-1.18;82.40;98217.66;5030495;28;20049;-73
2022/01/12 08:36:11;;;;;;;58.53;25.83;;;;;;;-1.14;81.98;98212.75;5029815;28;20057;-73
2022/01/12 08:38:38;;;;;;;61.85;26.60;;;;;;;-1.10;81.43;98214.00;5030265;28;20076;-74
2022/01/12 08:41:04;;;;;;;58.45;24.90;;;;;;;-1.17;79.99;98207.78;5029318;28;20053;-74
2022/01/12 08:43:32;;;;;;;57.67;24.23;;;;;;;-1.23;79.95;98216.59;5029570;28;20057;-74
2022/01/12 08:45:59;;;;;;;59.22;25.88;;;;;;;-1.24;80.04;98222.97;5030144;28;20052;-73
2022/01/12 08:48:25;;;;;;;55.65;24.15;;;;;;;-1.26;80.08;98214.31;5029567;28;20049;-73
2022/01/12 08:50:52;;;;;;;56.80;24.42;;;;;;;-1.36;80.52;98220.00;5030050;28;20049;-74
2022/01/12 08:53:18;;;;;;;57.90;24.90;;;;;;;-1.46;80.19;98220.38;5029384;28;20053;-73
2022/01/12 08:55:45;;;;;;;60.40;25.85;;;;;;;-1.54;80.54;98225.88;5029938;28;20049;-74
2022/01/12 08:58:12;;;;;;;62.50;25.48;;;;;;;-1.45;81.51;98221.22;5029474;28;20049;-73
2022/01/12 09:00:39;;;;;;;61.92;25.80;;;;;;;-1.43;81.27;98225.31;5029717;28;20512;-73
2022/01/12 09:03:06;;;;;;;63.72;26.40;;;;;;;-1.37;81.59;98219.19;5029530;28;20049;-73
2022/01/12 09:05:33;;;;;;;63.05;26.13;;;;;;;-1.27;80.79;98226.03;5029971;28;20046;-74
2022/01/12 09:07:59;;;;;;;57.05;25.42;;;;;;;-1.22;80.77;98215.56;5030164;28;20045;-73
2022/01/12 09:10:26;;;;;;;58.00;26.27;;;;;;;-1.27;80.03;98207.31;5029176;28;20045;-73
2022/01/12 09:12:52;;;;;;;57.45;25.00;;;;;;;-1.21;80.20;98215.38;5029581;28;20052;-73
2022/01/12 09:15:24;;;;;;;62.38;27.08;;;;;;;-1.12;80.40;98210.69;5029441;28;20049;-74
2022/01/12 09:17:54;;;;;;;60.83;26.52;;;;;;;-1.06;80.21;98209.91;5029894;28;20050;-74
2022/01/12 09:20:21;;;;;;;59.95;25.88;;;;;;;-1.10;79.68;98230.88;5029308;28;20061;-73
2022/01/12 09:22:49;;;;;;;62.55;27.10;;;;;;;-1.08;80.14;98236.03;5029710;28;20060;-73
2022/01/12 09:25:16;;;;;;;59.30;25.23;;;;;;;-1.11;80.14;98239.91;5029002;28;20060;-74
2022/01/12 09:27:42;;;;;;;61.45;26.83;;;;;;;-1.06;80.57;98247.34;5029381;28;20504;-74
2022/01/12 09:30:11;;;;;;;58.50;25.40;;;;;;;-0.96;80.87;98242.44;5029128;28;20041;-73
2022/01/12 09:32:38;;;;;;;64.70;28.40;;;;;;;-0.86;80.61;98236.75;5029147;28;20060;-74
2022/01/12 09:35:08;;;;;;;57.88;26.25;;;;;;;-0.79;80.33;98235.72;5029082;28;20060;-73
2022/01/12 09:37:34;;;;;;;60.40;25.83;;;;;;;-0.75;79.92;98221.97;5029203;28;20057;-74
2022/01/12 09:40:01;;;;;;;61.40;26.52;;;;;;;-0.68;79.16;98215.63;5028938;28;20054;-74
2022/01/12 09:42:27;;;;;;;57.90;24.83;;;;;;;-0.63;77.97;98218.50;5028109;28;20057;-74
2022/01/12 09:44:54;;;;;;;53.97;23.85;;;;;;;-0.73;77.35;98225.25;5029059;28;20046;-74
2022/01/12 09:47:21;;;;;;;55.03;25.10;;;;;;;-0.73;77.21;98230.59;5028477;28;20056;-73
2022/01/12 09:49:48;;;;;;;53.10;24.13;;;;;;;-0.75;76.97;98221.97;5028959;28;20080;-77
2022/01/12 09:52:16;;;;;;;52.88;24.20;;;;;;;-0.86;77.33;98231.41;5028450;28;20054;-74
2022/01/12 09:54:43;;;;;;;46.33;22.70;;;;;;;-1.04;77.36;98231.94;5028924;28;20174;-74
2022/01/12 09:57:09;;;;;;;57.08;23.50;;;;;;;-1.06;77.87;98231.28;5028551;28;20053;-74
2022/01/12 09:59:36;;;;;;;52.05;23.75;;;;;;;-1.18;77.98;98231.03;5028697;28;20056;-73
2022/01/12 10:02:04;;;;;;;49.88;22.17;;;;;;;-1.26;78.77;98230.34;5028285;28;20777;-74
2022/01/12 10:04:32;;;;;;;49.78;22.95;;;;;;;-1.22;79.26;98231.63;5028506;28;20463;-73
2022/01/12 10:07:00;;;;;;;47.58;22.55;;;;;;;-1.22;79.31;98224.41;5028895;28;20225;-74
2022/01/12 10:09:34;;;;;;;51.25;23.05;;;;;;;-1.11;79.58;98234.56;5028304;28;21444;-74
2022/01/12 10:12:04;;;;;;;50.92;24.67;;;;;;;-0.99;79.81;98226.81;5028068;28;20119;-73
2022/01/12 10:14:39;;;;;;;53.83;23.23;;;;;;;-0.94;79.58;98228.88;5028652;28;20053;-74
2022/01/12 10:17:06;;;;;;;53.38;23.30;;;;;;;-0.84;79.61;98224.81;5028103;28;20056;-73
2022/01/12 10:19:34;;;;;;;50.95;23.33;;;;;;;-0.82;78.82;98228.13;5028562;28;20049;-73
2022/01/12 10:22:02;;;;;;;53.15;23.42;;;;;;;-0.85;78.37;98233.03;5028369;28;20084;-74
2022/01/12 10:24:30;;;;;;;56.30;24.00;;;;;;;-0.76;78.83;98228.34;5028278;28;20045;-74
2022/01/12 10:26:58;;;;;;;51.35;23.35;;;;;;;-0.67;78.45;98227.16;5028534;28;20057;-75
2022/01/12 10:29:27;;;;;;;51.03;22.63;;;;;;;-0.66;77.87;98226.13;5027889;28;20053;-74
2022/01/12 10:31:56;;;;;;;53.42;24.70;;;;;;;-0.62;77.76;98219.34;5028342;28;20412;-74
2022/01/12 10:34:25;;;;;;;55.83;23.48;;;;;;;-0.59;77.69;98221.63;5028130;28;20053;-75
2022/01/12 10:36:53;;;;;;;59.42;24.52;;;;;;;-0.54;77.41;98213.81;5028188;28;20049;-74
2022/01/12 10:39:21;;;;;;;54.08;23.30;;;;;;;-0.50;77.47;98220.41;5027696;28;20496;-74
2022/01/12 10:42:02;;;;;;;51.10;23.80;;;;;;;-0.54;77.21;98203.94;5027854;28;20587;-74
2022/01/12 10:44:31;;;;;;;49.60;23.02;;;;;;;-0.50;77.72;98209.72;5019398;28;20056;-73
2022/01/12 10:47:09;;;;;;;47.95;23.35;;;;;;;-0.41;77.97;98213.03;5028284;28;20055;-74
2022/01/12 10:49:37;;;;;;;50.05;23.17;;;;;;;-0.36;77.82;98222.09;5021155;28;20042;-74
2022/01/12 10:52:08;;;;;;;52.20;24.27;;;;;;;-0.31;77.70;98225.00;5027632;28;20049;-73
2022/01/12 10:54:45;;;;;;;53.22;23.73;;;;;;;-0.29;77.13;98222.94;5028208;28;20048;-74
2022/01/12 10:57:22;;;;;;;52.72;23.88;;;;;;;-0.27;76.50;98214.69;5027380;28;20045;-73
2022/01/12 11:00:01;;;;;;;52.35;23.25;;;;;;;-0.19;75.02;98200.31;5027951;28;20470;-74
2022/01/12 11:02:29;;;;;;;51.80;24.08;;;;;;;-0.21;74.79;98205.03;5027549;28;20072;-74
2022/01/12 11:04:57;;;;;;;55.53;23.90;;;;;;;-0.18;75.09;98215.34;5027838;28;20133;-74
2022/01/12 11:07:25;;;;;;;50.92;23.60;;;;;;;-0.18;75.56;98209.97;5027772;28;20045;-74
2022/01/12 11:09:57;;;;;;;51.28;24.00;;;;;;;-0.17;75.98;98217.78;5027591;28;20054;-74
2022/01/12 11:12:25;;;;;;;48.17;22.45;;;;;;;-0.20;75.24;98209.38;5026460;28;20451;-74
2022/01/12 11:14:52;;;;;;;49.25;23.35;;;;;;;-0.16;74.78;98221.28;5027820;28;20412;-73
2022/01/12 11:17:19;;;;;;;51.50;22.67;;;;;;;-0.12;74.77;98219.88;5027356;28;20056;-75
2022/01/12 11:19:50;;;;;;;51.45;22.90;;;;;;;-0.11;74.14;98213.47;5027590;28;20049;-73
2022/01/12 11:22:26;;;;;;;45.83;22.95;;;;;;;-0.18;74.42;98215.34;5027116;28;20049;-74
2022/01/12 11:24:54;;;;;;;54.13;24.15;;;;;;;-0.23;75.02;98220.47;5027701;28;20049;-74
2022/01/12 11:27:21;;;;;;;51.38;23.15;;;;;;;-0.17;75.22;98214.31;5027329;28;20057;-73
2022/01/12 11:29:49;;;;;;;50.95;23.83;;;;;;;-0.21;75.09;98197.00;5027721;28;20038;-74
2022/01/12 11:32:22;;;;;;;55.20;24.85;;;;;;;-0.20;75.37;98178.06;5026994;28;20057;-75
2022/01/12 11:34:59;;;;;;;53.45;26.20;;;;;;;-0.17;75.52;98183.00;5027740;28;20057;-74
2022/01/12 11:37:26;;;;;;;53.92;25.08;;;;;;;-0.16;74.88;98203.38;5027221;28;20125;-73
2022/01/12 11:39:52;;;;;;;53.92;24.60;;;;;;;-0.12;75.00;98201.13;5027513;28;20053;-74
2022/01/12 11:42:19;;;;;;;51.33;23.92;;;;;;;-0.15;74.55;98194.34;5024312;28;20056;-74
2022/01/12 11:44:45;;;;;;;50.42;23.73;;;;;;;-0.10;74.89;98196.41;5013833;28;20578;-74
2022/01/12 11:47:15;;;;;;;51.10;22.98;;;;;;;-0.08;75.14;98191.66;5027125;28;20436;-74
2022/01/12 11:49:44;;;;;;;51.42;24.67;;;;;;;-0.06;75.29;98194.94;5027538;28;20131;-74
2022/01/12 11:52:16;;;;;;;56.75;25.85;;;;;;;-0.01;75.13;98197.84;5027102;28;20145;-74
2022/01/12 11:54:45;;;;;;;52.78;24.05;;;;;;;-0.01;75.10;98195.16;5029090;28;20052;-74
2022/01/12 11:57:18;;;;;;;54.63;25.27;;;;;;;-0.05;75.25;98188.59;5030865;28;20828;-73
2022/01/12 11:59:53;;;;;;;47.90;22.98;;;;;;;-0.01;75.72;98192.47;5031132;28;20072;-74
2022/01/12 12:02:31;;;;;;;49.67;22.05;;;;;;;0.00;75.65;98210.22;5030442;28;20057;-73
2022/01/12 12:04:59;;;;;;;49.30;22.77;;;;;;;0.01;75.16;98205.69;5031277;28;20064;-74
2022/01/12 12:07:26;;;;;;;55.47;24.15;;;;;;;-0.06;75.24;98213.69;5030376;28;20099;-74
2022/01/12 12:09:57;;;;;;;53.63;24.02;;;;;;;-0.26;74.95;98221.72;5030860;28;20049;-75
2022/01/12 12:12:27;;;;;;;53.35;23.80;;;;;;;-0.29;74.98;98217.59;5029635;28;20059;-73
2022/01/12 12:14:56;;;;;;;60.38;26.02;;;;;;;-0.30;75.00;98223.16;5030985;28;20053;-74
2022/01/12 12:17:26;;;;;;;55.83;26.58;;;;;;;-0.28;75.08;98235.28;5030355;28;20091;-73
2022/01/12 12:19:53;;;;;;;52.78;23.45;;;;;;;-0.25;75.62;98235.94;5030729;28;20566;-73
2022/01/12 12:22:22;;;;;;;53.75;24.77;;;;;;;-0.23;74.78;98229.31;5029701;28;20068;-74
2022/01/12 12:24:56;;;;;;;56.00;26.00;;;;;;;-0.25;74.93;98234.06;5030593;28;20049;-74